createdAt,value
2022-12-27T00:03:30.744Z,99661.66
2022-12-27T00:09:32.990Z,99653.88
2022-12-27T00:15:36.045Z,99658.16
2022-12-27T00:21:38.008Z,99657.78
2022-12-27T00:27:39.991Z,99669.47
2022-12-27T00:33:44.861Z,99676.34
2022-12-27T00:39:47.725Z,99683.44
2022-12-27T00:45:49.824Z,99681.94
2022-12-27T00:51:51.803Z,99660.44
2022-12-27T00:57:54.566Z,99675.00
2022-12-27T01:03:57.813Z,99682.69
2022-12-27T01:09:59.775Z,99680.06
2022-12-27T01:16:01.866Z,99687.06
2022-12-27T01:22:04.929Z,99693.03
2022-12-27T01:28:06.804Z,99691.09
2022-12-27T01:34:08.691Z,99696.13
2022-12-27T01:40:11.582Z,99706.19
2022-12-27T01:46:13.870Z,99692.63
2022-12-27T01:52:16.002Z,99712.03
2022-12-27T01:58:41.080Z,99723.47
2022-12-27T02:04:43.818Z,99714.72
2022-12-27T02:10:46.547Z,99723.78
2022-12-27T02:16:48.596Z,99726.47
2022-12-27T02:23:53.596Z,99720.19
2022-12-27T02:30:08.544Z,99734.38
2022-12-27T02:36:20.812Z,99747.78
2022-12-27T02:42:41.586Z,99734.53
2022-12-27T02:49:13.750Z,99732.31
2022-12-27T02:56:12.424Z,99735.22
2022-12-27T03:02:49.909Z,99761.56
2022-12-27T03:08:58.447Z,99762.09
2022-12-27T03:15:31.889Z,99762.41
2022-12-27T03:22:03.694Z,99778.31
2022-12-27T03:28:45.835Z,99785.25
2022-12-27T03:35:10.246Z,99774.25
2022-12-27T03:41:40.018Z,99785.84
2022-12-27T03:47:55.374Z,99793.50
2022-12-27T03:54:07.236Z,99792.78
2022-12-27T04:00:10.160Z,99806.44
2022-12-27T04:06:12.057Z,99812.31
2022-12-27T04:12:32.710Z,99805.63
2022-12-27T04:18:53.079Z,99814.69
2022-12-27T04:25:13.646Z,99811.78
2022-12-27T04:31:34.207Z,99799.06
2022-12-27T04:37:36.120Z,99798.66
2022-12-27T04:43:56.482Z,99803.25
2022-12-27T04:50:16.839Z,99793.22
2022-12-27T04:56:18.728Z,99785.09
2022-12-27T05:02:20.988Z,99805.22
2022-12-27T05:08:41.813Z,99807.13
2022-12-27T05:14:43.676Z,99815.47
2022-12-27T05:20:45.575Z,99809.44
2022-12-27T05:26:47.461Z,99827.22
2022-12-27T05:32:49.358Z,99811.84
2022-12-27T05:38:51.985Z,99818.44
2022-12-27T05:44:53.871Z,99818.69
2022-12-27T05:50:55.824Z,99819.38
2022-12-27T05:56:57.683Z,99824.09
2022-12-27T06:02:59.637Z,99828.91
2022-12-27T06:09:01.599Z,99831.41
2022-12-27T06:15:05.889Z,99836.03
2022-12-27T06:21:14.652Z,99849.94
2022-12-27T06:27:16.607Z,99840.69
2022-12-27T06:33:18.482Z,99847.50
2022-12-27T06:39:20.553Z,99849.69
2022-12-27T06:45:22.435Z,99859.50
2022-12-27T06:51:24.338Z,99866.41
2022-12-27T06:57:26.261Z,99873.09
2022-12-27T07:03:28.157Z,99880.84
2022-12-27T07:09:30.064Z,99890.31
2022-12-27T07:15:32.007Z,99898.59
2022-12-27T07:21:34.638Z,99897.97
2022-12-27T07:27:37.356Z,99893.00
2022-12-27T07:33:39.867Z,99903.94
2022-12-27T07:39:41.766Z,99894.19
2022-12-27T07:45:43.714Z,99931.94
2022-12-27T07:51:45.635Z,99942.84
2022-12-27T07:57:47.509Z,99946.19
2022-12-27T08:03:49.568Z,99948.66
2022-12-27T08:09:51.911Z,99957.06
2022-12-27T08:15:54.404Z,99966.81
2022-12-27T08:21:56.295Z,99972.75
2022-12-27T08:28:10.493Z,99975.78
2022-12-27T08:34:12.384Z,99981.25
2022-12-27T08:40:14.312Z,99998.31
2022-12-27T08:46:16.269Z,100009.03
2022-12-27T08:52:18.282Z,100012.28
2022-12-27T08:58:20.151Z,100024.19
2022-12-27T09:04:22.053Z,100020.97
2022-12-27T09:10:24.458Z,100025.06
2022-12-27T09:16:28.319Z,100038.16
2022-12-27T09:22:30.186Z,100050.19
2022-12-27T09:28:32.252Z,100046.81
2022-12-27T09:34:34.208Z,100054.28
2022-12-27T09:40:37.407Z,100060.59
2022-12-27T09:47:00.128Z,100064.66
2022-12-27T09:53:17.334Z,100066.97
2022-12-27T09:59:35.997Z,100065.69
2022-12-27T10:05:39.646Z,100071.78
2022-12-27T10:12:09.840Z,100072.28
2022-12-27T10:18:43.169Z,100066.25
2022-12-27T10:24:53.925Z,100072.69
2022-12-27T10:31:03.951Z,100080.69
2022-12-27T10:37:05.933Z,100079.16
2022-12-27T10:43:24.600Z,100061.63
2022-12-27T10:49:30.253Z,100057.16
2022-12-27T10:55:37.227Z,100053.06
2022-12-27T11:01:40.184Z,100065.03
2022-12-27T11:07:43.497Z,100060.19
2022-12-27T11:13:45.568Z,100066.19
2022-12-27T11:19:48.279Z,100070.59
2022-12-27T11:26:05.126Z,100070.91
2022-12-27T11:32:08.765Z,100073.84
2022-12-27T11:38:28.093Z,100072.22
2022-12-27T11:44:39.813Z,100067.78
2022-12-27T11:51:01.252Z,100067.22
2022-12-27T11:57:36.867Z,100072.66
2022-12-27T12:04:03.704Z,100063.81
2022-12-27T12:10:48.300Z,100065.38
2022-12-27T12:17:36.126Z,100076.31
2022-12-27T12:24:18.327Z,100082.44
2022-12-27T12:30:52.501Z,100078.91
2022-12-27T12:37:17.748Z,100080.69
2022-12-27T12:44:03.830Z,100071.84
2022-12-27T12:50:27.831Z,100066.59
2022-12-27T12:56:54.301Z,100070.66
2022-12-27T13:03:37.921Z,100073.75
2022-12-27T13:09:54.403Z,100071.97
2022-12-27T13:16:19.768Z,100073.34
2022-12-27T13:23:02.614Z,100057.69
2022-12-27T13:29:31.311Z,100055.19
2022-12-27T13:35:54.578Z,100042.72
2022-12-27T13:42:29.703Z,100041.41
2022-12-27T13:49:05.435Z,100036.56
2022-12-27T13:55:54.782Z,100049.53
2022-12-27T14:02:37.744Z,100054.81
2022-12-27T14:09:10.816Z,100041.13
2022-12-27T14:15:18.689Z,100026.81
2022-12-27T14:21:52.087Z,100030.69
2022-12-27T14:28:21.704Z,100027.19
2022-12-27T14:35:01.903Z,100022.09
2022-12-27T14:41:20.281Z,100031.34
2022-12-27T14:48:03.695Z,100033.22
2022-12-27T14:54:45.892Z,100028.59
2022-12-27T15:01:12.876Z,100030.88
2022-12-27T15:08:00.503Z,100027.81
2022-12-27T15:14:42.476Z,100017.09
2022-12-27T15:20:59.303Z,100021.25
2022-12-27T15:27:20.297Z,100012.38
2022-12-27T15:34:01.477Z,100013.69
2022-12-27T15:40:27.725Z,100010.88
2022-12-27T15:46:41.395Z,100003.63
2022-12-27T15:53:00.757Z,100005.94
2022-12-27T15:59:45.789Z,99999.47
2022-12-27T16:05:52.258Z,100005.75
2022-12-27T16:12:30.800Z,100000.69
2022-12-27T16:18:57.193Z,100001.03
2022-12-27T16:25:13.252Z,100013.69
2022-12-27T16:31:15.174Z,100006.09
2022-12-27T16:37:53.205Z,100011.50
2022-12-27T16:44:22.924Z,100004.97
2022-12-27T16:50:43.350Z,100002.97
2022-12-27T16:56:48.221Z,99999.41
2022-12-27T17:02:50.427Z,99996.13
2022-12-27T17:09:10.818Z,100005.69
2022-12-27T17:15:13.635Z,100010.50
2022-12-27T17:21:31.227Z,99991.31
2022-12-27T17:27:59.873Z,99992.63
2022-12-27T17:34:13.474Z,99995.38
2022-12-27T17:40:57.795Z,99997.66
2022-12-27T17:47:22.110Z,99991.91
2022-12-27T17:53:43.421Z,99991.78
2022-12-27T17:59:50.289Z,99994.53
2022-12-27T18:05:52.346Z,99986.38
2022-12-27T18:11:54.406Z,99986.47
2022-12-27T18:18:01.124Z,99980.59
2022-12-27T18:24:17.570Z,99975.00
2022-12-27T18:30:19.537Z,99981.31
2022-12-27T18:36:32.208Z,99973.25
2022-12-27T18:42:43.123Z,99979.25
2022-12-27T18:48:45.510Z,99966.53
2022-12-27T18:54:47.557Z,99965.94
2022-12-27T19:01:24.779Z,99971.41
2022-12-27T19:07:26.785Z,99957.41
2022-12-27T19:13:47.605Z,99949.66
2022-12-27T19:20:02.746Z,99951.13
2022-12-27T19:26:30.139Z,99942.84
2022-12-27T19:32:34.181Z,99927.84
2022-12-27T19:38:40.371Z,99928.06
2022-12-27T19:44:44.604Z,99921.69
2022-12-27T19:50:53.374Z,99920.53
2022-12-27T19:56:55.233Z,99919.84
2022-12-27T20:02:57.206Z,99929.00
2022-12-27T20:08:59.227Z,99921.09
2022-12-27T20:15:01.368Z,99922.28
2022-12-27T20:21:03.357Z,99911.31
2022-12-27T20:27:06.028Z,99898.56
2022-12-27T20:33:09.032Z,99896.06
2022-12-27T20:39:11.377Z,99899.16
2022-12-27T20:45:13.328Z,99902.91
2022-12-27T20:51:25.150Z,99895.75
2022-12-27T20:57:27.889Z,99908.44
2022-12-27T21:03:29.798Z,99904.81
2022-12-27T21:09:31.701Z,99884.78
2022-12-27T21:15:37.423Z,99879.19
2022-12-27T21:21:44.928Z,99873.13
2022-12-27T21:27:48.569Z,99859.94
2022-12-27T21:33:50.540Z,99855.63
2022-12-27T21:39:52.456Z,99846.00
2022-12-27T21:45:55.053Z,99838.75
2022-12-27T21:51:57.030Z,99844.25
2022-12-27T21:57:58.922Z,99839.88
2022-12-27T22:04:00.954Z,99838.81
2022-12-27T22:10:02.969Z,99836.81
2022-12-27T22:16:11.512Z,99825.25
2022-12-27T22:22:13.488Z,99830.75
2022-12-27T22:28:15.386Z,99824.59
2022-12-27T22:34:17.293Z,99814.09
2022-12-27T22:40:30.982Z,99814.19
2022-12-27T22:53:04.752Z,99815.38
2022-12-27T22:59:09.171Z,99798.94
2022-12-27T23:05:11.097Z,99789.66
2022-12-27T23:11:19.585Z,99791.09
2022-12-27T23:17:21.485Z,99785.69
2022-12-27T23:23:24.880Z,99772.56
2022-12-27T23:29:26.804Z,99772.34
2022-12-27T23:35:28.804Z,99765.13
2022-12-27T23:41:30.874Z,99744.50
2022-12-27T23:47:32.755Z,99721.25
2022-12-27T23:53:35.358Z,99714.75
2022-12-27T23:59:37.263Z,99698.56
